createdAt,value
2016-06-08T00:00:16.839Z,0
2016-06-08T00:01:16.874Z,0
2016-06-08T00:02:16.876Z,0
2016-06-08T00:03:16.941Z,0
2016-06-08T00:04:17.038Z,0
2016-06-08T00:05:16.963Z,0
2016-06-08T00:06:16.966Z,0
2016-06-08T00:07:16.999Z,0
2016-06-08T00:08:17.017Z,0
2016-06-08T00:09:17.052Z,0
2016-06-08T00:10:16.897Z,0
2016-06-08T00:11:17.182Z,0
2016-06-08T00:12:17.121Z,0
2016-06-08T00:13:16.968Z,0
2016-06-08T00:14:17.143Z,0
2016-06-08T00:15:17.161Z,0
2016-06-08T00:16:17.180Z,0
2016-06-08T00:17:17.198Z,0
2016-06-08T00:18:17.216Z,0
2016-06-08T00:19:17.078Z,0
2016-06-08T00:20:17.268Z,0
2016-06-08T00:21:17.271Z,0
2016-06-08T00:22:17.305Z,0
2016-06-08T00:23:17.339Z,0
2016-06-08T00:24:17.341Z,0
2016-06-08T00:25:17.204Z,0
2016-06-08T00:26:17.253Z,0
2016-06-08T00:27:18.537Z,0
2016-06-08T00:28:17.430Z,0
2016-06-08T00:29:17.433Z,0
2016-06-08T00:30:17.311Z,0
2016-06-08T00:31:17.486Z,0
2016-06-08T00:32:17.504Z,0
2016-06-08T00:33:17.366Z,0
2016-06-08T00:34:17.541Z,0
2016-06-08T00:35:17.558Z,0
2016-06-08T00:36:17.592Z,0
2016-06-08T00:37:17.611Z,0
2016-06-08T00:38:17.629Z,0
2016-06-08T00:39:17.648Z,0
2016-06-08T00:40:17.682Z,0
2016-06-08T00:41:18.497Z,0
2016-06-08T00:42:17.891Z,0
2016-06-08T00:43:17.721Z,0
2016-06-08T00:44:17.755Z,0
2016-06-08T00:45:17.773Z,0
2016-06-08T00:46:17.807Z,0
2016-06-08T00:47:17.794Z,0
2016-06-08T00:48:17.844Z,0
2016-06-08T00:49:17.846Z,0
2016-06-08T00:50:17.865Z,0
2016-06-08T00:51:17.882Z,0
2016-06-08T00:52:17.901Z,0
2016-06-08T00:53:17.935Z,0
2016-06-08T00:54:17.953Z,0
2016-06-08T00:55:17.957Z,0
2016-06-08T00:56:18.537Z,0
2016-06-08T00:57:18.618Z,0
2016-06-08T00:58:18.043Z,0
2016-06-08T00:59:18.029Z,0
2016-06-08T01:00:18.079Z,0
2016-06-08T01:01:18.081Z,0
2016-06-08T01:02:18.116Z,0
2016-06-08T01:03:17.978Z,0
2016-06-08T01:04:18.168Z,0
2016-06-08T01:05:18.186Z,0
2016-06-08T01:06:18.189Z,0
2016-06-08T01:07:18.222Z,0
2016-06-08T01:08:18.241Z,0
2016-06-08T01:09:18.244Z,0
2016-06-08T01:10:18.293Z,0
2016-06-08T01:11:18.687Z,0
2016-06-08T01:12:18.189Z,0
2016-06-08T01:13:18.317Z,0
2016-06-08T01:14:18.352Z,0
2016-06-08T01:15:18.369Z,0
2016-06-08T01:16:18.388Z,0
2016-06-08T01:17:18.421Z,0
2016-06-08T01:18:18.424Z,0
2016-06-08T01:19:18.458Z,0
2016-06-08T01:20:18.461Z,0
2016-06-08T01:21:18.338Z,0
2016-06-08T01:22:18.513Z,0
2016-06-08T01:23:18.532Z,0
2016-06-08T01:24:18.581Z,0
2016-06-08T01:25:18.584Z,0
2016-06-08T01:26:18.742Z,0
2016-06-08T01:27:19.246Z,0
2016-06-08T01:28:18.639Z,0
2016-06-08T01:29:18.642Z,0
2016-06-08T01:30:18.660Z,0
2016-06-08T01:31:18.694Z,0
2016-06-08T01:32:18.556Z,0
2016-06-08T01:33:18.730Z,0
2016-06-08T01:34:18.623Z,0
2016-06-08T01:35:18.767Z,0
2016-06-08T01:36:18.786Z,0
2016-06-08T01:37:18.803Z,0
2016-06-08T01:38:18.838Z,0
2016-06-08T01:39:18.840Z,0
2016-06-08T01:40:18.874Z,0
2016-06-08T01:41:20.439Z,0
2016-06-08T01:42:18.629Z,0
2016-06-08T01:43:18.930Z,0
2016-06-08T01:44:18.963Z,0
2016-06-08T01:45:18.810Z,0
2016-06-08T01:46:19.000Z,0
2016-06-08T01:47:19.018Z,0
2016-06-08T01:48:19.052Z,0
2016-06-08T01:49:19.054Z,0
2016-06-08T01:50:19.073Z,0
2016-06-08T01:51:19.076Z,0
2016-06-08T01:52:19.141Z,0
2016-06-08T01:53:19.143Z,0
2016-06-08T01:54:19.131Z,0
2016-06-08T01:55:19.179Z,0
2016-06-08T01:56:19.214Z,0
2016-06-08T01:57:19.060Z,0
2016-06-08T01:58:19.235Z,0
2016-06-08T01:59:19.254Z,0
2016-06-08T02:00:19.256Z,0
2016-06-08T02:01:19.275Z,0
2016-06-08T02:02:19.324Z,0
2016-06-08T02:03:19.326Z,0
2016-06-08T02:04:19.361Z,0
2016-06-08T02:05:19.363Z,0
2016-06-08T02:06:19.381Z,0
2016-06-08T02:07:19.259Z,0
2016-06-08T02:08:19.419Z,0
2016-06-08T02:09:19.436Z,0
2016-06-08T02:10:19.486Z,0
2016-06-08T02:11:19.488Z,0
2016-06-08T02:12:19.555Z,0
2016-06-08T02:13:19.525Z,0
2016-06-08T02:14:19.544Z,0
2016-06-08T02:15:19.563Z,0
2016-06-08T02:16:19.580Z,0
2016-06-08T02:17:19.599Z,0
2016-06-08T02:18:19.633Z,0
2016-06-08T02:19:19.354Z,0
2016-06-08T02:20:19.497Z,0
2016-06-08T02:21:19.703Z,0
2016-06-08T02:22:19.706Z,0
2016-06-08T02:23:19.709Z,0
2016-06-08T02:24:19.758Z,0
2016-06-08T02:25:19.760Z,0
2016-06-08T02:26:19.638Z,0
2016-06-08T02:27:20.984Z,0
2016-06-08T02:28:19.831Z,0
2016-06-08T02:29:19.834Z,0
2016-06-08T02:30:19.883Z,0
2016-06-08T02:31:19.715Z,0
2016-06-08T02:32:19.904Z,0
2016-06-08T02:33:19.767Z,0
2016-06-08T02:34:19.942Z,0
2016-06-08T02:35:19.959Z,0
2016-06-08T02:36:19.994Z,0
2016-06-08T02:37:20.028Z,0
2016-06-08T02:38:20.030Z,0
2016-06-08T02:39:20.048Z,0
2016-06-08T02:40:19.911Z,0
2016-06-08T02:41:19.944Z,0
2016-06-08T02:42:20.775Z,0
2016-06-08T02:43:20.105Z,0
2016-06-08T02:44:20.124Z,0
2016-06-08T02:45:20.019Z,0
2016-06-08T02:46:20.176Z,0
2016-06-08T02:47:20.195Z,0
2016-06-08T02:48:20.229Z,0
2016-06-08T02:49:20.075Z,0
2016-06-08T02:50:20.266Z,0
2016-06-08T02:51:20.268Z,0
2016-06-08T02:52:20.302Z,0
2016-06-08T02:53:20.305Z,0
2016-06-08T02:54:20.323Z,0
2016-06-08T02:55:20.201Z,0
2016-06-08T02:56:20.376Z,0
2016-06-08T02:57:20.331Z,0
2016-06-08T02:58:20.396Z,0
2016-06-08T02:59:20.430Z,0
2016-06-08T03:00:20.464Z,0
2016-06-08T03:01:20.483Z,0
2016-06-08T03:02:20.516Z,0
2016-06-08T03:03:20.504Z,0
2016-06-08T03:04:20.537Z,0
2016-06-08T03:05:20.540Z,0
2016-06-08T03:06:20.575Z,0
2016-06-08T03:07:20.592Z,0
2016-06-08T03:08:20.611Z,0
2016-06-08T03:09:20.614Z,0
2016-06-08T03:10:20.647Z,0
2016-06-08T03:11:20.681Z,0
2016-06-08T03:12:21.825Z,0
2016-06-08T03:13:20.702Z,0
2016-06-08T03:14:20.736Z,0
2016-06-08T03:15:20.738Z,0
2016-06-08T03:16:20.772Z,0
2016-06-08T03:17:20.776Z,0
2016-06-08T03:18:20.810Z,0
2016-06-08T03:19:20.828Z,0
2016-06-08T03:20:20.690Z,0
2016-06-08T03:21:20.865Z,0
2016-06-08T03:22:20.898Z,0
2016-06-08T03:23:20.604Z,0
2016-06-08T03:24:20.779Z,0
2016-06-08T03:25:20.922Z,0
2016-06-08T03:26:20.972Z,0
2016-06-08T03:27:21.256Z,0
2016-06-08T03:28:21.024Z,5
2016-06-08T03:29:20.870Z,5
2016-06-08T03:30:21.045Z,5
2016-06-08T03:31:21.047Z,5
2016-06-08T03:32:21.081Z,5
2016-06-08T03:33:21.101Z,5
2016-06-08T03:34:21.118Z,5
2016-06-08T03:35:21.137Z,5
2016-06-08T03:36:21.155Z,5
2016-06-08T03:37:21.173Z,5
2016-06-08T03:38:21.192Z,5
2016-06-08T03:39:21.209Z,5
2016-06-08T03:40:21.228Z,5
2016-06-08T03:41:21.231Z,5
2016-06-08T03:42:21.390Z,5
2016-06-08T03:43:21.314Z,5
2016-06-08T03:44:21.317Z,10
2016-06-08T03:45:21.180Z,10
2016-06-08T03:46:21.338Z,10
2016-06-08T03:47:21.215Z,10
2016-06-08T03:48:21.234Z,10
2016-06-08T03:49:21.408Z,10
2016-06-08T03:50:21.427Z,10
2016-06-08T03:51:21.445Z,10
2016-06-08T03:52:21.494Z,10
2016-06-08T03:53:21.482Z,10
2016-06-08T03:54:21.391Z,10
2016-06-08T03:55:21.534Z,10
2016-06-08T03:56:21.552Z,10
2016-06-08T03:57:21.804Z,10
2016-06-08T03:58:21.461Z,10
2016-06-08T03:59:21.624Z,10
2016-06-08T04:00:21.673Z,10
2016-06-08T04:01:21.643Z,10
2016-06-08T04:02:21.678Z,15
2016-06-08T04:03:21.681Z,15
2016-06-08T04:04:21.714Z,15
2016-06-08T04:05:21.733Z,15
2016-06-08T04:06:21.767Z,15
2016-06-08T04:07:21.754Z,15
2016-06-08T04:08:21.787Z,20
2016-06-08T04:09:21.790Z,20
2016-06-08T04:10:21.840Z,25
2016-06-08T04:11:21.858Z,25
2016-06-08T04:12:23.142Z,30
2016-06-08T04:13:22.597Z,30
2016-06-08T04:14:21.914Z,35
2016-06-08T04:15:21.773Z,35
2016-06-08T04:16:21.792Z,40
2016-06-08T04:17:21.968Z,40
2016-06-08T04:18:22.002Z,40
2016-06-08T04:19:22.021Z,45
2016-06-08T04:20:22.038Z,45
2016-06-08T04:21:22.057Z,40
2016-06-08T04:22:22.060Z,40
2016-06-08T04:23:21.919Z,35
2016-06-08T04:24:22.094Z,35
2016-06-08T04:25:22.112Z,35
2016-06-08T04:26:22.162Z,35
2016-06-08T04:27:22.901Z,35
2016-06-08T04:28:22.482Z,35
2016-06-08T04:29:22.232Z,35
2016-06-08T04:30:22.250Z,35
2016-06-08T04:31:22.254Z,35
2016-06-08T04:32:22.272Z,40
2016-06-08T04:33:22.290Z,40
2016-06-08T04:34:22.309Z,40
2016-06-08T04:35:22.342Z,40
2016-06-08T04:36:22.204Z,40
2016-06-08T04:37:22.362Z,40
2016-06-08T04:38:22.381Z,40
2016-06-08T04:39:22.400Z,40
2016-06-08T04:40:22.450Z,45
2016-06-08T04:41:22.452Z,45
2016-06-08T04:42:23.629Z,45
2016-06-08T04:43:23.491Z,50
2016-06-08T04:44:22.538Z,50
2016-06-08T04:45:22.525Z,50
2016-06-08T04:46:22.558Z,50
2016-06-08T04:47:22.578Z,50
2016-06-08T04:48:22.597Z,55
2016-06-08T04:49:22.614Z,55
2016-06-08T04:50:22.647Z,55
2016-06-08T04:51:22.650Z,60
2016-06-08T04:52:22.685Z,60
2016-06-08T04:53:22.671Z,60
2016-06-08T04:54:22.566Z,60
2016-06-08T04:55:22.755Z,60
2016-06-08T04:56:22.758Z,65
2016-06-08T04:57:22.510Z,65
2016-06-08T04:58:22.873Z,65
2016-06-08T04:59:22.813Z,65
2016-06-08T05:00:22.831Z,65
2016-06-08T05:01:22.865Z,65
2016-06-08T05:02:22.726Z,70
2016-06-08T05:03:22.745Z,70
2016-06-08T05:04:22.921Z,70
2016-06-08T05:05:22.938Z,70
2016-06-08T05:06:22.973Z,75
2016-06-08T05:07:22.978Z,80
2016-06-08T05:08:23.006Z,85
2016-06-08T05:09:23.036Z,95
2016-06-08T05:10:23.079Z,95
2016-06-08T05:11:22.953Z,100
2016-06-08T05:12:24.845Z,110
2016-06-08T05:13:23.819Z,110
2016-06-08T05:14:23.194Z,115
2016-06-08T05:15:23.201Z,120
2016-06-08T05:16:22.910Z,125
2016-06-08T05:17:23.088Z,125
2016-06-08T05:18:23.124Z,125
2016-06-08T05:19:23.299Z,125
2016-06-08T05:20:23.319Z,125
2016-06-08T05:21:23.339Z,125
2016-06-08T05:22:23.358Z,120
2016-06-08T05:23:23.392Z,120
2016-06-08T05:24:23.427Z,120
2016-06-08T05:25:23.430Z,120
2016-06-08T05:26:23.464Z,120
2016-06-08T05:27:23.908Z,120
2016-06-08T05:28:25.020Z,125
2016-06-08T05:29:23.504Z,125
2016-06-08T05:30:23.554Z,130
2016-06-08T05:31:23.542Z,130
2016-06-08T05:32:23.576Z,130
2016-06-08T05:33:23.594Z,130
2016-06-08T05:34:23.613Z,130
2016-06-08T05:35:23.631Z,135
2016-06-08T05:36:23.649Z,135
2016-06-08T05:37:23.667Z,140
2016-06-08T05:38:23.718Z,140
2016-06-08T05:39:23.720Z,140
2016-06-08T05:40:23.753Z,140
2016-06-08T05:41:23.773Z,140
2016-06-08T05:42:23.790Z,140
2016-06-08T05:43:24.373Z,145
2016-06-08T05:44:23.827Z,165
2016-06-08T05:45:23.673Z,160
2016-06-08T05:46:23.708Z,160
2016-06-08T05:47:23.882Z,170
2016-06-08T05:48:23.900Z,175
2016-06-08T05:49:23.934Z,170
2016-06-08T05:50:23.969Z,175
2016-06-08T05:51:23.971Z,175
2016-06-08T05:52:23.989Z,185
2016-06-08T05:53:24.023Z,185
2016-06-08T05:54:23.885Z,180
2016-06-08T05:55:24.044Z,180
2016-06-08T05:56:24.077Z,180
2016-06-08T05:57:24.081Z,180
2016-06-08T05:58:23.974Z,175
2016-06-08T05:59:24.133Z,170
2016-06-08T06:00:24.166Z,170
2016-06-08T06:01:24.013Z,175
2016-06-08T06:02:24.204Z,175
2016-06-08T06:03:24.221Z,175
2016-06-08T06:04:24.099Z,165
2016-06-08T06:05:24.101Z,165
2016-06-08T06:06:24.293Z,170
2016-06-08T06:07:24.155Z,165
2016-06-08T06:08:24.313Z,170
2016-06-08T06:09:24.362Z,175
2016-06-08T06:10:24.365Z,170
2016-06-08T06:11:24.400Z,165
2016-06-08T06:12:24.433Z,165
2016-06-08T06:13:25.939Z,160
2016-06-08T06:14:24.298Z,160
2016-06-08T06:15:24.473Z,165
2016-06-08T06:16:24.523Z,165
2016-06-08T06:17:24.509Z,165
2016-06-08T06:18:24.559Z,170
2016-06-08T06:19:24.405Z,170
2016-06-08T06:20:24.595Z,175
2016-06-08T06:21:24.614Z,170
2016-06-08T06:22:24.632Z,170
2016-06-08T06:23:24.666Z,165
2016-06-08T06:24:24.669Z,160
2016-06-08T06:25:24.688Z,160
2016-06-08T06:26:24.736Z,160
2016-06-08T06:27:24.724Z,165
2016-06-08T06:28:26.260Z,155
2016-06-08T06:29:24.776Z,155
2016-06-08T06:30:24.826Z,155
2016-06-08T06:31:24.812Z,155
2016-06-08T06:32:24.831Z,155
2016-06-08T06:33:24.866Z,155
2016-06-08T06:34:24.743Z,155
2016-06-08T06:35:24.901Z,150
2016-06-08T06:36:24.905Z,155
2016-06-08T06:37:24.954Z,150
2016-06-08T06:38:24.816Z,145
2016-06-08T06:39:24.834Z,140
2016-06-08T06:40:24.837Z,140
2016-06-08T06:41:25.027Z,135
2016-06-08T06:42:25.076Z,140
2016-06-08T06:43:25.361Z,140
2016-06-08T06:44:25.098Z,150
2016-06-08T06:45:25.101Z,155
2016-06-08T06:46:25.119Z,165
2016-06-08T06:47:24.997Z,170
2016-06-08T06:48:25.203Z,160
2016-06-08T06:49:25.189Z,155
2016-06-08T06:50:25.255Z,155
2016-06-08T06:51:25.241Z,155
2016-06-08T06:52:25.275Z,155
2016-06-08T06:53:25.278Z,155
2016-06-08T06:54:25.312Z,165
2016-06-08T06:55:25.331Z,170
2016-06-08T06:56:25.349Z,175
2016-06-08T06:57:25.383Z,180
2016-06-08T06:58:25.322Z,185
2016-06-08T06:59:25.404Z,185
2016-06-08T07:00:25.438Z,190
2016-06-08T07:01:25.471Z,190
2016-06-08T07:02:25.474Z,195
2016-06-08T07:03:25.336Z,200
2016-06-08T07:04:25.543Z,200
2016-06-08T07:05:25.530Z,205
2016-06-08T07:06:25.578Z,210
2016-06-08T07:07:25.582Z,225
2016-06-08T07:08:25.632Z,210
2016-06-08T07:09:25.618Z,210
2016-06-08T07:10:25.652Z,215
2016-06-08T07:11:25.670Z,210
2016-06-08T07:12:25.720Z,225
2016-06-08T07:13:25.879Z,230
2016-06-08T07:14:25.740Z,245
2016-06-08T07:15:25.743Z,250
2016-06-08T07:16:25.792Z,245
2016-06-08T07:17:25.795Z,230
2016-06-08T07:18:25.831Z,210
2016-06-08T07:19:25.849Z,220
2016-06-08T07:20:25.856Z,200
2016-06-08T07:21:25.890Z,215
2016-06-08T07:22:25.935Z,215
2016-06-08T07:23:25.927Z,205
2016-06-08T07:24:25.942Z,210
2016-06-08T07:25:25.951Z,230
2016-06-08T07:26:25.844Z,225
2016-06-08T07:27:26.019Z,210
2016-06-08T07:28:26.881Z,215
2016-06-08T07:29:26.056Z,225
2016-06-08T07:30:26.089Z,225
2016-06-08T07:31:26.108Z,215
2016-06-08T07:32:26.141Z,210
2016-06-08T07:33:26.160Z,235
2016-06-08T07:34:26.006Z,235
2016-06-08T07:35:26.187Z,235
2016-06-08T07:36:26.220Z,255
2016-06-08T07:37:26.255Z,260
2016-06-08T07:38:26.289Z,265
2016-06-08T07:39:26.136Z,265
2016-06-08T07:40:26.153Z,265
2016-06-08T07:41:26.317Z,250
2016-06-08T07:42:26.352Z,245
2016-06-08T07:43:26.854Z,260
2016-06-08T07:44:26.247Z,250
2016-06-08T07:45:26.406Z,265
2016-06-08T07:46:26.424Z,265
2016-06-08T07:47:26.490Z,265
2016-06-08T07:48:26.476Z,265
2016-06-08T07:49:26.510Z,270
2016-06-08T07:50:26.373Z,255
2016-06-08T07:51:26.543Z,235
2016-06-08T07:52:26.591Z,245
2016-06-08T07:53:26.579Z,245
2016-06-08T07:54:26.472Z,250
2016-06-08T07:55:26.631Z,255
2016-06-08T07:56:26.636Z,255
2016-06-08T07:57:26.670Z,255
2016-06-08T07:58:26.547Z,235
2016-06-08T07:59:27.284Z,240
2016-06-08T08:00:26.740Z,250
2016-06-08T08:01:26.774Z,255
2016-06-08T08:02:26.792Z,265
2016-06-08T08:03:26.826Z,265
2016-06-08T08:04:26.829Z,245
2016-06-08T08:05:26.878Z,260
2016-06-08T08:06:26.897Z,260
2016-06-08T08:07:26.900Z,260
2016-06-08T08:08:26.934Z,250
2016-06-08T08:09:26.937Z,255
2016-06-08T08:10:26.970Z,250
2016-06-08T08:11:26.976Z,240
2016-06-08T08:12:27.010Z,240
2016-06-08T08:13:26.794Z,250
2016-06-08T08:14:26.758Z,250
2016-06-08T08:15:26.963Z,250
2016-06-08T08:16:27.107Z,255
2016-06-08T08:17:26.671Z,265
2016-06-08T08:18:27.143Z,265
2016-06-08T08:19:27.036Z,265
2016-06-08T08:20:27.196Z,260
2016-06-08T08:21:27.041Z,260
2016-06-08T08:22:27.232Z,255
2016-06-08T08:23:27.265Z,255
2016-06-08T08:24:27.379Z,250
2016-06-08T08:25:27.288Z,250
2016-06-08T08:26:27.711Z,250
2016-06-08T08:27:27.355Z,255
2016-06-08T08:28:27.654Z,255
2016-06-08T08:29:27.548Z,250
2016-06-08T08:30:27.395Z,245
2016-06-08T08:31:27.443Z,250
2016-06-08T08:32:27.478Z,250
2016-06-08T08:33:27.480Z,255
2016-06-08T08:34:27.498Z,260
2016-06-08T08:35:27.548Z,255
2016-06-08T08:36:27.550Z,250
2016-06-08T08:37:27.428Z,245
2016-06-08T08:38:27.603Z,245
2016-06-08T08:39:27.637Z,245
2016-06-08T08:40:27.625Z,245
2016-06-08T08:41:27.502Z,240
2016-06-08T08:42:27.677Z,235
2016-06-08T08:43:28.133Z,235
2016-06-08T08:44:28.276Z,245
2016-06-08T08:45:27.747Z,245
2016-06-08T08:46:27.750Z,245
2016-06-08T08:47:27.783Z,260
2016-06-08T08:48:27.646Z,265
2016-06-08T08:49:27.695Z,265
2016-06-08T08:50:27.869Z,270
2016-06-08T08:51:27.888Z,280
2016-06-08T08:52:27.890Z,280
2016-06-08T08:53:27.924Z,280
2016-06-08T08:54:27.943Z,285
2016-06-08T08:55:27.992Z,285
2016-06-08T08:56:27.854Z,285
2016-06-08T08:57:28.013Z,285
2016-06-08T08:58:28.688Z,285
2016-06-08T08:59:28.910Z,280
2016-06-08T09:00:28.085Z,285
2016-06-08T09:01:28.102Z,275
2016-06-08T09:02:28.121Z,280
2016-06-08T09:03:28.140Z,285
2016-06-08T09:04:28.189Z,285
2016-06-08T09:05:28.192Z,290
2016-06-08T09:06:28.225Z,285
2016-06-08T09:07:28.087Z,290
2016-06-08T09:08:28.106Z,285
2016-06-08T09:09:28.280Z,280
2016-06-08T09:10:28.158Z,280
2016-06-08T09:11:28.301Z,285
2016-06-08T09:12:28.350Z,290
2016-06-08T09:13:28.447Z,300
2016-06-08T09:14:28.606Z,305
2016-06-08T09:15:28.391Z,305
2016-06-08T09:16:28.424Z,310
2016-06-08T09:17:29.130Z,295
2016-06-08T09:18:28.477Z,300
2016-06-08T09:19:28.494Z,300
2016-06-08T09:20:28.529Z,305
2016-06-08T09:21:28.578Z,300
2016-06-08T09:22:28.566Z,295
2016-06-08T09:23:28.443Z,295
2016-06-08T09:24:28.618Z,290
2016-06-08T09:25:28.635Z,290
2016-06-08T09:26:28.670Z,290
2016-06-08T09:27:28.719Z,300
2016-06-08T09:28:29.363Z,300
2016-06-08T09:29:29.787Z,300
2016-06-08T09:30:28.758Z,305
2016-06-08T09:31:28.777Z,305
2016-06-08T09:32:28.795Z,310
2016-06-08T09:33:28.845Z,285
2016-06-08T09:34:28.691Z,285
2016-06-08T09:35:28.850Z,255
2016-06-08T09:36:28.915Z,250
2016-06-08T09:37:28.917Z,295
2016-06-08T09:38:28.920Z,290
2016-06-08T09:39:28.955Z,305
2016-06-08T09:40:28.973Z,300
2016-06-08T09:41:29.007Z,270
2016-06-08T09:42:29.025Z,270
2016-06-08T09:43:29.075Z,275
2016-06-08T09:44:29.562Z,275
2016-06-08T09:45:29.097Z,275
2016-06-08T09:46:29.114Z,280
2016-06-08T09:47:29.133Z,275
2016-06-08T09:48:29.182Z,275
2016-06-08T09:49:29.200Z,275
2016-06-08T09:50:29.219Z,245
2016-06-08T09:51:29.237Z,270
2016-06-08T09:52:29.271Z,240
2016-06-08T09:53:29.273Z,260
2016-06-08T09:54:29.152Z,240
2016-06-08T09:55:29.169Z,260
2016-06-08T09:56:29.188Z,245
2016-06-08T09:57:29.221Z,255
2016-06-08T09:58:29.396Z,260
2016-06-08T09:59:30.774Z,265
2016-06-08T10:00:29.276Z,270
2016-06-08T10:01:29.451Z,265
2016-06-08T10:02:29.501Z,270
2016-06-08T10:03:29.520Z,265
2016-06-08T10:04:29.522Z,275
2016-06-08T10:05:29.556Z,270
2016-06-08T10:06:29.434Z,235
2016-06-08T10:07:29.609Z,265
2016-06-08T10:08:29.455Z,270
2016-06-08T10:09:29.691Z,265
2016-06-08T10:10:29.664Z,265
2016-06-08T10:11:29.666Z,270
2016-06-08T10:12:29.731Z,270
2016-06-08T10:13:29.750Z,270
2016-06-08T10:14:29.627Z,235
2016-06-08T10:15:29.786Z,240
2016-06-08T10:16:29.680Z,265
2016-06-08T10:17:29.683Z,260
2016-06-08T10:18:29.872Z,255
2016-06-08T10:19:30.312Z,260
2016-06-08T10:20:29.924Z,260
2016-06-08T10:21:29.943Z,260
2016-06-08T10:22:29.946Z,255
2016-06-08T10:23:29.963Z,255
2016-06-08T10:24:30.013Z,240
2016-06-08T10:25:30.015Z,240
2016-06-08T10:26:29.877Z,265
2016-06-08T10:27:30.052Z,270
2016-06-08T10:28:30.087Z,270
2016-06-08T10:29:31.949Z,275
2016-06-08T10:30:30.107Z,275
2016-06-08T10:31:30.016Z,280
2016-06-08T10:32:30.190Z,275
2016-06-08T10:33:30.116Z,275
2016-06-08T10:34:30.196Z,275
2016-06-08T10:35:30.246Z,280
2016-06-08T10:36:30.279Z,280
2016-06-08T10:37:30.298Z,280
2016-06-08T10:38:30.317Z,285
2016-06-08T10:39:30.320Z,285
2016-06-08T10:40:30.212Z,285
2016-06-08T10:41:30.387Z,275
2016-06-08T10:42:30.421Z,275
2016-06-08T10:43:30.408Z,275
2016-06-08T10:44:30.145Z,270
2016-06-08T10:45:30.461Z,265
2016-06-08T10:46:30.478Z,260
2016-06-08T10:47:30.528Z,255
2016-06-08T10:48:30.515Z,255
2016-06-08T10:49:30.564Z,255
2016-06-08T10:50:30.583Z,260
2016-06-08T10:51:31.102Z,255
2016-06-08T10:52:30.651Z,255
2016-06-08T10:53:30.669Z,255
2016-06-08T10:54:30.688Z,255
2016-06-08T10:55:30.706Z,265
2016-06-08T10:56:30.724Z,255
2016-06-08T10:57:31.132Z,255
2016-06-08T10:58:30.776Z,255
2016-06-08T10:59:31.170Z,260
2016-06-08T11:00:31.001Z,265
2016-06-08T11:01:30.847Z,270
2016-06-08T11:02:30.866Z,270
2016-06-08T11:03:30.821Z,280
2016-06-08T11:04:30.918Z,285
2016-06-08T11:05:30.982Z,300
2016-06-08T11:06:30.985Z,300
2016-06-08T11:07:31.004Z,295
2016-06-08T11:08:31.007Z,295
2016-06-08T11:09:31.009Z,295
2016-06-08T11:10:31.028Z,285
2016-06-08T11:11:31.061Z,305
2016-06-08T11:12:31.080Z,290
2016-06-08T11:13:31.114Z,280
2016-06-08T11:14:31.350Z,275
2016-06-08T11:15:31.025Z,280
2016-06-08T11:16:31.169Z,275
2016-06-08T11:17:31.202Z,285
2016-06-08T11:18:31.080Z,285
2016-06-08T11:19:31.239Z,285
2016-06-08T11:20:31.272Z,290
2016-06-08T11:21:31.167Z,285
2016-06-08T11:22:31.326Z,300
2016-06-08T11:23:31.218Z,295
2016-06-08T11:24:31.363Z,295
2016-06-08T11:25:31.380Z,290
2016-06-08T11:26:31.414Z,285
2016-06-08T11:27:31.464Z,295
2016-06-08T11:28:31.451Z,275
2016-06-08T11:29:31.516Z,275
2016-06-08T11:30:31.488Z,275
2016-06-08T11:31:31.381Z,270
2016-06-08T11:32:31.571Z,270
2016-06-08T11:33:31.558Z,265
2016-06-08T11:34:31.607Z,265
2016-06-08T11:35:31.642Z,265
2016-06-08T11:36:31.488Z,270
2016-06-08T11:37:31.506Z,285
2016-06-08T11:38:31.712Z,285
2016-06-08T11:39:31.714Z,290
2016-06-08T11:40:31.576Z,290
2016-06-08T11:41:31.752Z,290
2016-06-08T11:42:31.645Z,290
2016-06-08T11:43:31.648Z,290
2016-06-08T11:44:31.791Z,280
2016-06-08T11:45:32.028Z,275
2016-06-08T11:46:31.875Z,275
2016-06-08T11:47:31.768Z,280
2016-06-08T11:48:31.927Z,280
2016-06-08T11:49:31.930Z,270
2016-06-08T11:50:31.963Z,285
2016-06-08T11:51:31.825Z,295
2016-06-08T11:52:32.016Z,295
2016-06-08T11:53:32.033Z,285
2016-06-08T11:54:31.599Z,270
2016-06-08T11:55:32.071Z,275
2016-06-08T11:56:31.948Z,260
2016-06-08T11:57:32.123Z,255
2016-06-08T11:58:32.422Z,255
2016-06-08T11:59:36.005Z,250
2016-06-08T12:00:40.524Z,245
2016-06-08T12:01:32.212Z,240
2016-06-08T12:02:32.682Z,250
2016-06-08T12:03:33.780Z,255
2016-06-08T12:04:32.235Z,250
2016-06-08T12:05:32.128Z,255
2016-06-08T12:06:45.165Z,255
2016-06-08T12:07:32.181Z,250
2016-06-08T12:08:32.356Z,250
2016-06-08T12:09:38.236Z,245
2016-06-08T12:10:32.407Z,245
2016-06-08T12:11:33.145Z,250
2016-06-08T12:12:32.663Z,250
2016-06-08T12:13:32.306Z,235
2016-06-08T12:14:32.497Z,240
2016-06-08T12:15:32.375Z,255
2016-06-08T12:16:32.392Z,245
2016-06-08T12:17:32.411Z,250
2016-06-08T12:18:32.429Z,265
2016-06-08T12:19:34.681Z,265
2016-06-08T12:20:32.622Z,270
2016-06-08T12:21:35.171Z,265
2016-06-08T12:22:32.518Z,275
2016-06-08T12:23:34.896Z,285
2016-06-08T12:24:32.727Z,300
2016-06-08T12:25:32.729Z,310
2016-06-08T12:26:32.794Z,300
2016-06-08T12:27:32.782Z,285
2016-06-08T12:28:32.800Z,300
2016-06-08T12:29:32.678Z,315
2016-06-08T12:30:32.915Z,310
2016-06-08T12:31:35.573Z,305
2016-06-08T12:32:32.936Z,300
2016-06-08T12:33:32.907Z,285
2016-06-08T12:34:32.926Z,275
2016-06-08T12:35:32.974Z,270
2016-06-08T12:36:32.993Z,270
2016-06-08T12:37:32.855Z,270
2016-06-08T12:38:33.029Z,275
2016-06-08T12:39:33.048Z,270
2016-06-08T12:40:33.567Z,280
2016-06-08T12:41:35.912Z,270
2016-06-08T12:42:33.181Z,275
2016-06-08T12:43:33.012Z,280
2016-06-08T12:44:33.578Z,285
2016-06-08T12:45:33.939Z,285
2016-06-08T12:46:33.223Z,285
2016-06-08T12:47:33.507Z,280
2016-06-08T12:48:33.088Z,270
2016-06-08T12:49:33.122Z,270
2016-06-08T12:50:33.359Z,265
2016-06-08T12:51:36.017Z,270
2016-06-08T12:52:33.333Z,260
2016-06-08T12:53:33.227Z,265
2016-06-08T12:54:33.385Z,265
2016-06-08T12:55:33.419Z,260
2016-06-08T12:56:33.453Z,260
2016-06-08T12:57:33.471Z,245
2016-06-08T12:58:33.334Z,245
2016-06-08T12:59:33.696Z,250
2016-06-08T13:00:34.183Z,235
2016-06-08T13:01:35.733Z,235
2016-06-08T13:02:33.610Z,245
2016-06-08T13:03:33.613Z,250
2016-06-08T13:04:33.646Z,255
2016-06-08T13:05:33.712Z,250
2016-06-08T13:06:33.699Z,250
2016-06-08T13:07:33.717Z,235
2016-06-08T13:08:33.735Z,245
2016-06-08T13:09:33.597Z,255
2016-06-08T13:10:33.772Z,255
2016-06-08T13:11:35.901Z,255
2016-06-08T13:12:33.824Z,245
2016-06-08T13:13:33.858Z,240
2016-06-08T13:14:35.048Z,240
2016-06-08T13:15:34.098Z,240
2016-06-08T13:16:33.914Z,245
2016-06-08T13:17:33.759Z,250
2016-06-08T13:18:33.950Z,255
2016-06-08T13:19:33.983Z,255
2016-06-08T13:20:34.017Z,260
2016-06-08T13:21:36.740Z,265
2016-06-08T13:22:34.055Z,260
2016-06-08T13:23:34.088Z,260
2016-06-08T13:24:34.216Z,265
2016-06-08T13:25:34.125Z,255
2016-06-08T13:26:34.175Z,255
2016-06-08T13:27:34.177Z,245
2016-06-08T13:28:34.039Z,250
2016-06-08T13:29:34.277Z,240
2016-06-08T13:30:34.482Z,240
2016-06-08T13:31:37.750Z,260
2016-06-08T13:32:34.332Z,265
2016-06-08T13:33:34.287Z,275
2016-06-08T13:34:33.837Z,285
2016-06-08T13:35:34.340Z,285
2016-06-08T13:36:34.374Z,295
2016-06-08T13:37:34.391Z,270
2016-06-08T13:38:34.909Z,275
2016-06-08T13:39:34.428Z,275
2016-06-08T13:40:34.479Z,290
2016-06-08T13:41:34.340Z,300
2016-06-08T13:42:34.515Z,290
2016-06-08T13:43:34.517Z,295
2016-06-08T13:44:34.989Z,295
2016-06-08T13:45:35.179Z,300
2016-06-08T13:46:34.588Z,315
2016-06-08T13:47:34.637Z,310
2016-06-08T13:48:34.500Z,305
2016-06-08T13:49:36.034Z,315
2016-06-08T13:50:34.708Z,315
2016-06-08T13:51:37.398Z,315
2016-06-08T13:52:35.213Z,325
2016-06-08T13:53:34.763Z,320
2016-06-08T13:54:34.781Z,320
2016-06-08T13:55:35.627Z,320
2016-06-08T13:56:35.334Z,315
2016-06-08T13:57:34.852Z,320
2016-06-08T13:58:35.182Z,315
2016-06-08T13:59:34.920Z,315
2016-06-08T14:00:35.594Z,315
2016-06-08T14:01:38.113Z,315
2016-06-08T14:02:34.958Z,310
2016-06-08T14:03:35.040Z,305
2016-06-08T14:04:35.621Z,305